Time;durP1;ratioP1;P1;durP2;ratioP2;P2;SDS_P1;SDS_P2;PMS_P1;PMS_P2;Temp;Humidity;BMP_temperature;BMP_pressure;BME280_temperature;BME280_humidity;BME280_pressure;Samples;Min_cycle;Max_cycle;Signal;HPM_P1;HPM_P2
2022/01/03 00:01:09;;;;;;;19.40;3.60;;;11.30;59.30;;;;;;4991404;28;20390;-69
2022/01/03 00:03:34;;;;;;;18.38;3.75;;;11.20;59.50;;;;;;4991551;28;20889;-68
2022/01/03 00:06:01;;;;;;;22.43;3.70;;;11.30;58.80;;;;;;4989931;28;20429;-69
2022/01/03 00:08:28;;;;;;;14.85;3.50;;;11.40;57.80;;;;;;4991611;28;20897;-69
2022/01/03 00:10:55;;;;;;;15.02;2.47;;;11.40;58.40;;;;;;4991288;28;20436;-69
2022/01/03 00:13:21;;;;;;;23.05;3.90;;;11.30;58.70;;;;;;4991372;28;20390;-69
2022/01/03 00:15:47;;;;;;;31.63;4.73;;;11.40;56.70;;;;;;4991154;28;20390;-69
2022/01/03 00:18:12;;;;;;;23.03;4.00;;;11.40;56.40;;;;;;4990919;28;20552;-70
2022/01/03 00:20:40;;;;;;;26.13;4.03;;;11.40;56.80;;;;;;4991130;28;20401;-69
2022/01/03 00:23:08;;;;;;;18.58;3.72;;;11.40;54.90;;;;;;4991118;28;20814;-69
2022/01/03 00:25:41;;;;;;;16.27;3.75;;;11.50;54.60;;;;;;4991006;28;20429;-68
2022/01/03 00:28:21;;;;;;;19.20;3.65;;;11.50;54.50;;;;;;4990056;28;20513;-69
2022/01/03 00:30:50;;;;;;;23.13;3.85;;;11.40;55.20;;;;;;4989989;28;20402;-69
2022/01/03 00:33:19;;;;;;;20.25;3.60;;;11.40;53.90;;;;;;4991158;28;20387;-68
2022/01/03 00:35:45;;;;;;;21.65;3.85;;;11.40;53.60;;;;;;4991153;28;20386;-70
2022/01/03 00:38:12;;;;;;;16.10;3.30;;;11.40;54.00;;;;;;4989377;28;20394;-69
2022/01/03 00:40:39;;;;;;;22.25;4.20;;;11.30;53.60;;;;;;4991576;28;20842;-69
2022/01/03 00:43:06;;;;;;;24.02;3.80;;;11.20;54.00;;;;;;4994640;28;20542;-70
2022/01/03 00:45:32;;;;;;;20.98;3.90;;;11.20;54.10;;;;;;4994592;28;20386;-69
2022/01/03 00:47:58;;;;;;;19.88;3.72;;;11.20;54.10;;;;;;4993023;28;20404;-69
2022/01/03 00:50:24;;;;;;;20.27;4.10;;;11.30;54.90;;;;;;4994660;28;20422;-68
2022/01/03 00:52:51;;;;;;;22.00;3.80;;;11.20;55.30;;;;;;4994775;28;20425;-70
2022/01/03 00:55:18;;;;;;;24.63;3.92;;;11.20;55.10;;;;;;4994733;28;20390;-69
2022/01/03 00:58:16;;;;;;;20.15;3.83;;;11.30;55.30;;;;;;4994881;28;20812;-69
2022/01/03 01:00:42;;;;;;;17.30;3.33;;;11.30;55.00;;;;;;4993918;28;20787;-69
2022/01/03 01:03:10;;;;;;;18.77;3.75;;;11.30;55.30;;;;;;4994357;28;20418;-69
2022/01/03 01:05:44;;;;;;;24.85;4.35;;;11.40;54.70;;;;;;4994548;28;20401;-69
2022/01/03 01:08:11;;;;;;;18.90;3.90;;;11.40;54.30;;;;;;4994311;28;20390;-69
2022/01/03 01:10:40;;;;;;;23.17;4.50;;;11.30;55.10;;;;;;4994233;28;20481;-69
2022/01/03 01:13:10;;;;;;;21.95;4.30;;;11.30;55.60;;;;;;4994348;28;20394;-67
2022/01/03 01:15:36;;;;;;;28.45;4.97;;;11.20;55.80;;;;;;4994119;28;20498;-69
2022/01/03 01:18:04;;;;;;;22.57;4.90;;;11.10;56.20;;;;;;4993888;28;20477;-69
2022/01/03 01:20:32;;;;;;;22.42;4.82;;;11.00;57.20;;;;;;4994107;28;20430;-68
2022/01/03 01:22:58;;;;;;;19.88;4.15;;;10.90;58.10;;;;;;4993915;28;20391;-68
2022/01/03 01:27:46;;;;;;;22.75;4.00;;;11.00;57.50;;;;;;4993889;28;20899;-69
2022/01/03 01:28:14;;;;;;;28.30;4.85;;;11.10;56.70;;;;;;4993362;28;20461;-69
2022/01/03 01:30:40;;;;;;;26.52;4.57;;;11.10;56.30;;;;;;4993731;28;20887;-69
2022/01/03 01:33:09;;;;;;;24.65;4.47;;;11.10;56.20;;;;;;4992407;28;20402;-69
2022/01/03 01:35:50;;;;;;;22.17;3.97;;;11.10;56.00;;;;;;4992845;28;20402;-70
2022/01/03 01:38:18;;;;;;;22.13;4.20;;;11.20;54.70;;;;;;4993550;28;20875;-68
2022/01/03 01:40:53;;;;;;;20.58;3.83;;;11.20;56.00;;;;;;4993812;28;20495;-70
2022/01/03 01:43:29;;;;;;;19.65;4.00;;;11.10;55.20;;;;;;4993569;28;20417;-68
2022/01/03 01:45:56;;;;;;;20.48;4.45;;;11.10;55.60;;;;;;4992338;28;20398;-69
2022/01/03 01:48:24;;;;;;;22.92;4.75;;;11.20;54.00;;;;;;4993499;28;20410;-68
2022/01/03 01:50:52;;;;;;;26.53;4.20;;;11.10;54.80;;;;;;4993563;28;20390;-69
2022/01/03 01:53:24;;;;;;;20.67;3.65;;;11.20;52.90;;;;;;4992464;28;20529;-67
2022/01/03 01:55:52;;;;;;;27.80;4.20;;;11.10;53.90;;;;;;4993218;28;20405;-69
2022/01/03 01:58:28;;;;;;;24.70;4.45;;;11.00;55.20;;;;;;4993364;28;20598;-68
2022/01/03 02:01:07;;;;;;;22.58;4.28;;;10.80;56.90;;;;;;4993315;28;20465;-68
2022/01/03 02:04:00;;;;;;;26.70;4.13;;;10.90;56.40;;;;;;4993179;28;20410;-69
2022/01/03 02:06:38;;;;;;;27.05;4.32;;;10.90;55.90;;;;;;4993038;28;20448;-70
2022/01/03 02:09:07;;;;;;;23.70;4.20;;;10.90;57.00;;;;;;4993129;28;20394;-69
2022/01/03 02:11:38;;;;;;;24.60;5.28;;;10.80;56.80;;;;;;4993234;28;20394;-70
2022/01/03 02:14:04;;;;;;;29.08;5.30;;;10.80;57.70;;;;;;4991603;28;20398;-69
2022/01/03 02:16:32;;;;;;;24.40;4.30;;;10.70;58.10;;;;;;4991369;28;20405;-69
2022/01/03 02:18:58;;;;;;;25.40;4.45;;;10.80;57.00;;;;;;4992874;28;20399;-69
2022/01/03 02:21:23;;;;;;;23.17;4.22;;;10.80;57.40;;;;;;4992960;28;20902;-68
2022/01/03 02:23:49;;;;;;;23.45;3.88;;;10.80;57.20;;;;;;4992765;28;20759;-69
2022/01/03 02:26:14;;;;;;;24.83;3.80;;;10.70;58.40;;;;;;4992528;28;20465;-70
2022/01/03 02:28:40;;;;;;;21.52;3.35;;;10.60;58.60;;;;;;4992808;28;20473;-70
2022/01/03 02:31:06;;;;;;;24.88;4.13;;;10.50;59.40;;;;;;4992726;28;20390;-69
2022/01/03 02:33:32;;;;;;;22.45;3.47;;;10.50;59.20;;;;;;4988657;28;20468;-70
2022/01/03 02:35:58;;;;;;;30.65;5.00;;;10.50;58.60;;;;;;4992504;28;20453;-69
2022/01/03 02:38:24;;;;;;;26.90;4.25;;;10.50;58.20;;;;;;4992937;28;20398;-69
2022/01/03 02:40:50;;;;;;;14.43;3.53;;;10.50;57.40;;;;;;4992931;28;20887;-69
2022/01/03 02:43:15;;;;;;;21.57;4.27;;;10.50;57.10;;;;;;4992327;28;20493;-70
2022/01/03 02:45:41;;;;;;;21.13;4.00;;;10.50;56.20;;;;;;4992605;28;20422;-69
2022/01/03 02:48:07;;;;;;;24.77;3.77;;;10.50;55.20;;;;;;4992184;28;20457;-68
2022/01/03 02:50:35;;;;;;;21.98;4.20;;;10.50;56.10;;;;;;4992341;28;20386;-69
2022/01/03 02:53:01;;;;;;;23.02;4.32;;;10.50;56.40;;;;;;4992091;28;20379;-69
2022/01/03 02:55:26;;;;;;;24.90;3.73;;;10.50;56.40;;;;;;4992022;28;20386;-69
2022/01/03 02:57:56;;;;;;;17.00;3.53;;;10.50;56.60;;;;;;4991940;28;20448;-69
2022/01/03 03:00:28;;;;;;;23.33;4.20;;;10.50;56.70;;;;;;4992116;28;20390;-69
2022/01/03 03:02:55;;;;;;;17.50;3.53;;;10.50;57.30;;;;;;4991918;28;20401;-68
2022/01/03 03:05:21;;;;;;;17.40;4.13;;;10.50;57.50;;;;;;4991634;28;20480;-69
2022/01/03 03:07:47;;;;;;;21.20;4.65;;;10.50;57.50;;;;;;4991759;28;20434;-69
2022/01/03 03:10:18;;;;;;;17.05;3.80;;;10.60;57.00;;;;;;4991872;28;20394;-69
2022/01/03 03:12:45;;;;;;;16.50;3.70;;;10.50;57.00;;;;;;4991974;28;20749;-69
2022/01/03 03:15:13;;;;;;;24.08;4.95;;;10.50;57.20;;;;;;4992038;28;20714;-69
2022/01/03 03:17:40;;;;;;;21.83;3.78;;;10.60;57.00;;;;;;4991704;28;20402;-70
2022/01/03 03:20:08;;;;;;;18.80;3.90;;;10.50;56.80;;;;;;4990507;28;20401;-68
2022/01/03 03:22:34;;;;;;;22.25;3.75;;;10.50;57.10;;;;;;4990453;28;20556;-68
2022/01/03 03:25:01;;;;;;;18.77;4.07;;;10.50;58.20;;;;;;4990081;28;20418;-68
2022/01/03 03:27:27;;;;;;;20.17;3.88;;;10.50;58.40;;;;;;4991623;28;20390;-69
2022/01/03 03:29:53;;;;;;;22.17;4.33;;;10.40;58.40;;;;;;4991660;28;20386;-70
2022/01/03 03:32:19;;;;;;;26.57;4.20;;;10.40;58.40;;;;;;4991481;28;20883;-69
2022/01/03 03:34:47;;;;;;;22.65;4.60;;;10.30;59.00;;;;;;4990155;28;20398;-69
2022/01/03 03:37:13;;;;;;;29.55;5.32;;;10.30;59.60;;;;;;4991228;28;20394;-68
2022/01/03 03:39:40;;;;;;;18.77;3.58;;;10.20;60.40;;;;;;4991570;28;20398;-69
2022/01/03 03:42:07;;;;;;;26.27;4.75;;;10.20;60.70;;;;;;4991483;28;20402;-67
2022/01/03 03:44:34;;;;;;;25.08;4.70;;;10.20;61.40;;;;;;4991458;28;20505;-69
2022/01/03 03:47:00;;;;;;;21.10;3.90;;;10.10;61.50;;;;;;4991564;28;20393;-69
2022/01/03 03:49:29;;;;;;;30.80;4.30;;;10.20;61.10;;;;;;4991435;28;20390;-70
2022/01/03 03:51:55;;;;;;;21.50;3.75;;;10.30;60.40;;;;;;4991690;28;20469;-68
2022/01/03 03:54:20;;;;;;;17.02;3.38;;;10.20;61.70;;;;;;4991998;28;20478;-69
2022/01/03 03:56:46;;;;;;;16.30;3.90;;;10.20;62.40;;;;;;4991592;28;20390;-70
2022/01/03 03:59:12;;;;;;;16.75;4.00;;;10.00;63.80;;;;;;4992269;28;20799;-70
2022/01/03 04:01:37;;;;;;;25.55;3.75;;;10.10;63.50;;;;;;4992489;28;20386;-70
2022/01/03 04:04:03;;;;;;;21.75;3.80;;;10.10;63.20;;;;;;4991599;28;20406;-70
2022/01/03 04:06:29;;;;;;;11.90;3.40;;;10.10;63.10;;;;;;4990194;28;20441;-70
2022/01/03 04:08:55;;;;;;;21.20;4.40;;;10.10;63.70;;;;;;4991431;28;20418;-71
2022/01/03 04:11:21;;;;;;;24.60;3.50;;;10.10;63.90;;;;;;4991073;28;20422;-69
2022/01/03 04:13:46;;;;;;;18.08;4.00;;;10.00;64.30;;;;;;4991218;28;20401;-69
2022/01/03 04:16:13;;;;;;;19.55;4.10;;;10.00;65.00;;;;;;4992307;28;20390;-70
2022/01/03 04:18:39;;;;;;;19.58;3.38;;;10.00;65.50;;;;;;4995329;28;20401;-69
2022/01/03 04:21:04;;;;;;;22.53;4.10;;;9.90;67.00;;;;;;4994330;28;20394;-69
2022/01/03 04:23:30;;;;;;;20.03;4.17;;;9.90;67.60;;;;;;4995124;28;20488;-68
2022/01/03 04:25:56;;;;;;;27.20;4.57;;;9.90;66.70;;;;;;5004374;23;20801;-72
2022/01/03 04:28:21;;;;;;;14.60;4.03;;;9.90;67.50;;;;;;4981263;28;20386;-72
2022/01/03 04:30:47;;;;;;;24.37;3.43;;;9.90;67.70;;;;;;4979545;28;20391;-72
2022/01/03 04:33:12;;;;;;;17.80;3.73;;;9.80;68.10;;;;;;4976993;28;20455;-73
2022/01/03 04:35:39;;;;;;;22.50;3.77;;;9.80;67.90;;;;;;4976425;28;20395;-71
2022/01/03 04:38:05;;;;;;;21.48;4.50;;;9.90;68.00;;;;;;4975029;28;20395;-72
2022/01/03 04:40:31;;;;;;;19.95;3.50;;;9.90;67.50;;;;;;4978950;28;20417;-72
2022/01/03 04:42:57;;;;;;;18.00;3.28;;;10.00;66.00;;;;;;4978938;28;20526;-71
2022/01/03 04:45:23;;;;;;;16.90;3.70;;;10.00;65.30;;;;;;4977469;28;20472;-71
2022/01/03 04:47:48;;;;;;;17.45;3.70;;;10.00;63.90;;;;;;4974571;28;20881;-72
2022/01/03 04:50:15;;;;;;;16.52;4.03;;;10.00;63.90;;;;;;4975483;28;20410;-72
2022/01/03 04:52:40;;;;;;;24.23;4.60;;;10.00;64.40;;;;;;4975667;28;20467;-71
2022/01/03 04:55:06;;;;;;;22.80;3.60;;;9.90;65.80;;;;;;4975381;28;20535;-71
2022/01/03 04:57:32;;;;;;;17.40;3.83;;;9.90;64.60;;;;;;4975267;28;20495;-71
2022/01/03 04:59:57;;;;;;;27.83;4.20;;;10.00;63.90;;;;;;4974264;28;20404;-71
2022/01/03 05:02:23;;;;;;;20.90;3.90;;;10.10;62.40;;;;;;4975807;28;20389;-72
2022/01/03 05:04:48;;;;;;;19.40;3.73;;;10.10;62.20;;;;;;4975612;28;20892;-71
2022/01/03 05:07:14;;;;;;;20.70;3.45;;;10.10;61.00;;;;;;4975281;28;20523;-71
2022/01/03 05:09:40;;;;;;;20.40;4.65;;;10.20;59.50;;;;;;4974027;28;20443;-72
2022/01/03 05:12:07;;;;;;;20.70;4.28;;;10.20;59.50;;;;;;4975358;28;20384;-71
2022/01/03 05:14:33;;;;;;;19.17;3.70;;;10.10;59.60;;;;;;4975402;28;20644;-71
2022/01/03 05:16:59;;;;;;;19.45;4.00;;;10.10;60.10;;;;;;4975069;28;20384;-71
2022/01/03 05:19:25;;;;;;;20.38;3.75;;;10.30;58.90;;;;;;4975457;28;20434;-71
2022/01/03 05:21:51;;;;;;;17.60;3.60;;;10.40;58.10;;;;;;4975503;28;20857;-72
2022/01/03 05:24:17;;;;;;;22.55;4.18;;;10.50;57.00;;;;;;4975160;28;20412;-71
2022/01/03 05:26:43;;;;;;;17.00;4.10;;;10.60;56.00;;;;;;4974673;28;20408;-72
2022/01/03 05:29:09;;;;;;;13.88;3.97;;;10.60;55.90;;;;;;4975419;28;20401;-70
2022/01/03 05:31:35;;;;;;;24.90;4.00;;;10.60;56.70;;;;;;4975385;28;20392;-72
2022/01/03 05:34:00;;;;;;;14.43;3.63;;;10.70;55.20;;;;;;4974030;28;20469;-71
2022/01/03 05:36:27;;;;;;;22.23;4.13;;;10.70;55.30;;;;;;4974867;28;20400;-70
2022/01/03 05:38:53;;;;;;;19.17;3.97;;;10.70;55.90;;;;;;4975317;28;20885;-70
2022/01/03 05:41:18;;;;;;;19.20;3.50;;;10.70;55.90;;;;;;4975285;28;20425;-71
2022/01/03 05:43:45;;;;;;;22.15;4.10;;;10.70;55.20;;;;;;4975448;28;20426;-71
2022/01/03 05:46:11;;;;;;;25.02;4.32;;;10.80;54.70;;;;;;4974131;28;20765;-73
2022/01/03 05:48:37;;;;;;;22.75;3.88;;;10.80;54.40;;;;;;4974999;28;20400;-72
2022/01/03 05:51:03;;;;;;;21.92;4.90;;;10.90;54.20;;;;;;4979608;28;20388;-71
2022/01/03 05:53:30;;;;;;;23.83;4.00;;;10.90;53.80;;;;;;4981837;28;20435;-72
2022/01/03 05:55:56;;;;;;;17.58;4.40;;;10.90;53.80;;;;;;4981878;28;20389;-72
2022/01/03 05:58:22;;;;;;;25.40;4.57;;;10.90;53.40;;;;;;4975786;28;20466;-71
2022/01/03 06:00:48;;;;;;;16.83;3.80;;;10.90;53.70;;;;;;4975100;28;20434;-71
2022/01/03 06:03:15;;;;;;;19.10;3.80;;;10.80;55.00;;;;;;4974920;28;20443;-72
2022/01/03 06:06:03;;;;;;;21.77;3.90;;;10.80;55.90;;;;;;4976986;28;20398;-71
2022/01/03 06:08:27;;;;;;;22.55;4.28;;;10.80;54.70;;;;;;4977536;28;20423;-72
2022/01/03 06:10:52;;;;;;;20.98;4.20;;;10.80;54.90;;;;;;4979468;28;20396;-72
2022/01/03 06:13:19;;;;;;;25.63;3.80;;;10.90;54.40;;;;;;4977415;28;20458;-70
2022/01/03 06:15:46;;;;;;;25.45;4.63;;;10.90;53.80;;;;;;4974425;28;20392;-70
2022/01/03 06:18:15;;;;;;;17.85;3.72;;;10.90;54.00;;;;;;4974344;28;20406;-73
2022/01/03 06:20:43;;;;;;;18.47;4.10;;;10.90;53.80;;;;;;4974385;28;20424;-71
2022/01/03 06:23:10;;;;;;;18.00;3.70;;;10.90;53.80;;;;;;4974523;28;20486;-72
2022/01/03 06:25:37;;;;;;;27.88;4.15;;;10.90;53.90;;;;;;4974154;28;20415;-72
2022/01/03 06:28:07;;;;;;;21.88;4.28;;;10.90;54.80;;;;;;4974586;28;20414;-72
2022/01/03 06:30:42;;;;;;;21.63;4.30;;;10.90;54.80;;;;;;4974526;28;20399;-71
2022/01/03 06:33:10;;;;;;;14.75;3.90;;;10.90;54.20;;;;;;4973647;28;20431;-71
2022/01/03 06:35:35;;;;;;;25.85;4.32;;;11.00;53.50;;;;;;4975903;28;20380;-71
2022/01/03 06:38:02;;;;;;;24.70;4.68;;;11.00;54.40;;;;;;4977176;28;20396;-73
2022/01/03 06:40:28;;;;;;;31.58;4.35;;;11.00;53.40;;;;;;4980565;28;21229;-71
2022/01/03 06:42:54;;;;;;;26.20;4.50;;;11.10;53.00;;;;;;4978786;28;20435;-71
2022/01/03 06:45:21;;;;;;;31.60;5.30;;;11.10;53.10;;;;;;4984370;28;20395;-71
2022/01/03 06:47:48;;;;;;;20.98;3.90;;;11.10;52.80;;;;;;4980660;28;20491;-72
2022/01/03 06:50:13;;;;;;;17.17;4.20;;;11.10;52.90;;;;;;4974810;28;20400;-72
2022/01/03 06:52:39;;;;;;;22.07;4.40;;;11.10;52.60;;;;;;4974233;28;20388;-72
2022/01/03 06:55:05;;;;;;;23.83;4.30;;;11.10;53.10;;;;;;4974075;28;20853;-73
2022/01/03 06:57:32;;;;;;;26.50;4.70;;;11.10;52.20;;;;;;4974172;28;20404;-73
2022/01/03 06:59:57;;;;;;;21.98;4.55;;;11.10;52.80;;;;;;4974390;28;20400;-71
2022/01/03 07:02:23;;;;;;;27.42;5.18;;;11.10;52.80;;;;;;4972634;28;20422;-72
2022/01/03 07:04:49;;;;;;;24.60;4.10;;;11.10;52.60;;;;;;4974156;28;20411;-71
2022/01/03 07:07:15;;;;;;;19.15;3.75;;;11.00;52.50;;;;;;4973823;28;20487;-72
2022/01/03 07:09:40;;;;;;;25.40;4.53;;;11.00;52.70;;;;;;4974244;28;20488;-71
2022/01/03 07:12:06;;;;;;;17.55;4.00;;;10.90;53.30;;;;;;4973239;28;20400;-72
2022/01/03 07:19:51;;;;;;;24.33;4.38;;;10.50;55.50;;;;;;4973990;28;20762;-72
2022/01/03 07:22:17;;;;;;;21.80;4.32;;;10.50;56.30;;;;;;4974304;28;20427;-74
2022/01/03 07:24:43;;;;;;;24.73;4.53;;;10.40;57.30;;;;;;4974014;28;20455;-72
2022/01/03 07:27:11;;;;;;;25.27;4.40;;;10.30;58.10;;;;;;4972886;28;20419;-71
2022/01/03 07:29:37;;;;;;;25.75;4.53;;;10.30;58.60;;;;;;4973552;28;20404;-71
2022/01/03 07:32:03;;;;;;;16.05;3.85;;;10.30;58.70;;;;;;4973305;28;20399;-73
2022/01/03 07:34:29;;;;;;;28.35;4.82;;;10.40;58.10;;;;;;4973590;28;20399;-72
2022/01/03 07:36:54;;;;;;;28.50;4.57;;;10.40;57.50;;;;;;4973943;28;20388;-72
2022/01/03 07:39:20;;;;;;;25.27;4.47;;;10.40;57.40;;;;;;4972134;28;20400;-72
2022/01/03 07:41:46;;;;;;;29.83;4.90;;;10.40;57.70;;;;;;4972398;28;20411;-73
2022/01/03 07:44:12;;;;;;;20.27;4.17;;;10.40;58.30;;;;;;4973158;28;20412;-72
2022/01/03 07:46:37;;;;;;;27.50;4.70;;;10.40;58.30;;;;;;4972871;28;20861;-71
2022/01/03 07:49:03;;;;;;;21.77;4.60;;;10.50;58.40;;;;;;4973274;28;20391;-71
2022/01/03 07:51:30;;;;;;;19.63;4.20;;;10.60;57.50;;;;;;4972386;28;20396;-72
2022/01/03 07:53:55;;;;;;;17.10;4.20;;;10.60;57.40;;;;;;4971684;28;20396;-72
2022/01/03 07:56:21;;;;;;;20.02;4.15;;;10.60;57.70;;;;;;4972594;28;20401;-73
2022/01/03 07:58:47;;;;;;;12.85;4.00;;;10.60;58.10;;;;;;4972712;28;20388;-73
2022/01/03 08:01:14;;;;;;;22.93;4.20;;;10.60;57.40;;;;;;4972313;28;20503;-73
2022/01/03 08:03:39;;;;;;;21.75;4.10;;;10.60;57.40;;;;;;4972552;28;20408;-71
2022/01/03 08:06:07;;;;;;;22.07;3.90;;;10.60;58.00;;;;;;4972471;28;20894;-72
2022/01/03 08:08:33;;;;;;;22.40;4.70;;;10.70;57.10;;;;;;4972402;28;20399;-72
2022/01/03 08:10:58;;;;;;;30.63;5.13;;;10.60;57.70;;;;;;4972506;28;20381;-71
2022/01/03 08:13:24;;;;;;;28.27;4.80;;;10.60;58.10;;;;;;4972724;28;20396;-71
2022/01/03 08:15:49;;;;;;;17.83;4.13;;;10.60;58.00;;;;;;4972319;28;20402;-73
2022/01/03 08:18:15;;;;;;;27.53;4.60;;;10.70;57.50;;;;;;4971454;28;20435;-71
2022/01/03 08:20:41;;;;;;;24.30;4.50;;;10.70;57.80;;;;;;4972362;28;20486;-73
2022/01/03 08:23:06;;;;;;;28.00;4.88;;;10.80;57.60;;;;;;4972907;28;20761;-73
2022/01/03 08:25:37;;;;;;;23.10;4.20;;;10.80;57.40;;;;;;4972242;28;20431;-72
2022/01/03 08:28:04;;;;;;;20.25;4.53;;;10.90;56.40;;;;;;4972029;28;20393;-72
2022/01/03 08:30:30;;;;;;;26.05;4.45;;;11.00;55.90;;;;;;4972359;28;20873;-72
2022/01/03 08:32:55;;;;;;;19.27;4.13;;;11.00;55.70;;;;;;4972186;28;20432;-72
2022/01/03 08:35:22;;;;;;;20.20;5.07;;;11.10;55.50;;;;;;4970848;28;20443;-72
2022/01/03 08:37:48;;;;;;;15.30;3.80;;;11.20;56.10;;;;;;4972092;28;20398;-73
2022/01/03 08:40:15;;;;;;;22.02;4.40;;;11.20;56.00;;;;;;4972462;28;20384;-72
2022/01/03 08:42:40;;;;;;;17.95;3.85;;;11.20;55.70;;;;;;4971215;28;20392;-75
2022/01/03 08:45:06;;;;;;;24.60;5.07;;;11.20;55.50;;;;;;4974390;28;20415;-72
2022/01/03 08:47:32;;;;;;;23.23;4.63;;;11.20;56.10;;;;;;4976541;28;20786;-71
2022/01/03 08:49:57;;;;;;;17.93;5.20;;;11.30;56.20;;;;;;4976535;28;20502;-71
2022/01/03 08:52:23;;;;;;;19.77;4.32;;;11.30;55.30;;;;;;4974641;28;20391;-73
2022/01/03 08:54:49;;;;;;;22.48;4.93;;;11.40;55.60;;;;;;4973405;28;20428;-71
2022/01/03 08:57:14;;;;;;;20.35;4.45;;;11.40;55.80;;;;;;4971988;28;20784;-71
2022/01/03 08:59:40;;;;;;;26.13;4.57;;;11.30;56.00;;;;;;4972848;28;20392;-71
2022/01/03 09:02:06;;;;;;;16.98;4.30;;;11.40;55.80;;;;;;4973264;28;20908;-74
2022/01/03 09:04:31;;;;;;;18.58;3.88;;;11.40;56.30;;;;;;4974717;28;20531;-74
2022/01/03 09:06:58;;;;;;;25.95;5.32;;;11.40;56.00;;;;;;4975166;28;20412;-73
2022/01/03 09:09:27;;;;;;;22.52;4.78;;;11.30;57.10;;;;;;4975569;28;20395;-72
2022/01/03 09:11:53;;;;;;;19.30;4.35;;;11.30;57.00;;;;;;4975384;28;20388;-73
2022/01/03 09:14:18;;;;;;;22.60;4.70;;;11.40;56.20;;;;;;4975463;28;20464;-73
2022/01/03 09:16:44;;;;;;;16.80;4.20;;;11.40;56.10;;;;;;4975210;28;20400;-71
2022/01/03 09:19:10;;;;;;;25.90;5.00;;;11.40;55.30;;;;;;4975419;28;20419;-71
2022/01/03 09:21:35;;;;;;;20.03;4.20;;;11.40;55.30;;;;;;4973987;28;20443;-72
2022/01/03 09:29:29;;;;;;;18.58;4.78;;;11.40;53.50;;;;;;4975822;28;20968;-73
2022/01/03 09:31:55;;;;;;;22.70;4.80;;;11.50;53.30;;;;;;4975842;28;20404;-72
2022/01/03 09:34:20;;;;;;;24.17;5.37;;;11.50;52.90;;;;;;4977756;28;20407;-72
2022/01/03 09:36:46;;;;;;;21.57;4.57;;;11.50;51.80;;;;;;4980335;28;20399;-72
2022/01/03 09:39:12;;;;;;;20.02;4.28;;;11.60;50.60;;;;;;4982370;28;20408;-73
2022/01/03 09:42:01;;;;;;;21.27;4.63;;;11.60;50.90;;;;;;4978579;28;20393;-72
2022/01/03 09:44:32;;;;;;;17.08;3.80;;;11.60;51.00;;;;;;4983513;28;20422;-70
2022/01/03 09:47:02;;;;;;;22.45;3.80;;;11.70;50.50;;;;;;4981280;28;20392;-71
2022/01/03 09:49:33;;;;;;;22.73;4.75;;;11.80;48.60;;;;;;4975356;28;20741;-71
2022/01/03 09:52:02;;;;;;;23.10;5.18;;;11.90;48.20;;;;;;4974988;28;20385;-71
2022/01/03 09:54:28;;;;;;;25.83;4.75;;;12.00;46.40;;;;;;4974554;28;20400;-71
2022/01/03 09:56:56;;;;;;;24.25;4.75;;;12.00;44.90;;;;;;4973027;28;20777;-73
2022/01/03 09:59:22;;;;;;;16.23;3.70;;;12.10;45.00;;;;;;4974448;28;20392;-72
2022/01/03 10:01:47;;;;;;;16.83;3.70;;;12.20;43.70;;;;;;4975527;28;20392;-73
2022/01/03 10:04:14;;;;;;;20.77;4.90;;;12.20;43.20;;;;;;4975960;28;20415;-73
2022/01/03 10:06:40;;;;;;;26.33;4.38;;;12.10;43.90;;;;;;4975907;28;20388;-72
2022/01/03 10:09:06;;;;;;;18.77;4.32;;;12.20;43.50;;;;;;4975577;28;20856;-73
2022/01/03 10:11:32;;;;;;;24.67;4.53;;;12.30;42.90;;;;;;4976912;28;20442;-71
2022/01/03 10:13:59;;;;;;;27.17;4.53;;;12.30;42.50;;;;;;4975316;28;20436;-74
2022/01/03 10:16:25;;;;;;;19.37;4.27;;;12.30;43.20;;;;;;4975614;28;20400;-74
2022/01/03 10:18:51;;;;;;;16.15;4.47;;;12.30;42.80;;;;;;4974342;28;20749;-72
2022/01/03 10:21:41;;;;;;;15.52;4.00;;;12.30;43.00;;;;;;4973350;28;20405;-72
2022/01/03 10:24:08;;;;;;;16.52;3.92;;;12.30;43.10;;;;;;4974432;28;20438;-72
2022/01/03 10:26:34;;;;;;;17.90;4.87;;;12.40;42.10;;;;;;4977123;28;20431;-73
2022/01/03 10:29:18;;;;;;;21.97;4.17;;;12.50;42.10;;;;;;4981991;28;20452;-73
2022/01/03 10:31:46;;;;;;;20.35;4.80;;;12.50;41.70;;;;;;4980006;28;20388;-71
2022/01/03 10:34:15;;;;;;;17.35;4.22;;;12.60;41.40;;;;;;4974469;28;20400;-74
2022/01/03 10:36:42;;;;;;;22.42;4.15;;;12.50;41.60;;;;;;4973823;28;20395;-73
2022/01/03 10:39:21;;;;;;;22.55;4.60;;;12.50;42.50;;;;;;4973418;28;20757;-74
2022/01/03 10:41:50;;;;;;;24.67;4.85;;;12.50;42.60;;;;;;4982115;28;20419;-73
2022/01/03 10:44:37;;;;;;;17.93;4.13;;;12.40;42.40;;;;;;4986778;28;20478;-75
2022/01/03 10:47:08;;;;;;;24.98;5.28;;;12.30;42.70;;;;;;4981141;28;20420;-73
2022/01/03 10:49:35;;;;;;;13.70;3.55;;;12.40;42.80;;;;;;4975881;28;20400;-72
2022/01/03 10:52:28;;;;;;;16.10;3.92;;;12.60;41.90;;;;;;4974168;28;20388;-73
2022/01/03 10:55:33;;;;;;;17.83;4.40;;;12.70;40.80;;;;;;4973991;28;20534;-74
2022/01/03 10:58:06;;;;;;;18.95;4.32;;;12.80;40.20;;;;;;4953300;28;20404;-74
2022/01/03 11:00:40;;;;;;;25.08;4.90;;;12.70;40.80;;;;;;4974020;28;20754;-73
2022/01/03 11:05:48;;;;;;;25.27;4.40;;;12.80;40.60;;;;;;4973239;28;20435;-73
2022/01/03 11:11:00;;;;;;;21.02;4.53;;;12.90;39.50;;;;;;4974241;28;20505;-72
2022/01/03 11:13:26;;;;;;;23.17;4.75;;;12.90;40.40;;;;;;4974234;28;20735;-74
2022/01/03 11:16:00;;;;;;;19.58;4.30;;;13.00;39.90;;;;;;4974826;28;20491;-72
2022/01/03 11:18:27;;;;;;;19.10;4.13;;;13.20;38.80;;;;;;4972651;28;20757;-75
2022/01/03 11:21:15;;;;;;;19.73;3.75;;;13.10;38.70;;;;;;4973327;28;20390;-73
2022/01/03 11:23:59;;;;;;;20.85;3.90;;;13.10;38.90;;;;;;4973523;28;20412;-73
2022/01/03 11:26:26;;;;;;;19.80;3.80;;;13.00;39.90;;;;;;4972949;28;20455;-73
2022/01/03 11:28:52;;;;;;;24.60;4.60;;;13.10;40.00;;;;;;4973868;28;20402;-72
2022/01/03 11:31:20;;;;;;;17.33;4.40;;;13.10;39.70;;;;;;4973462;28;20475;-73
2022/01/03 11:33:50;;;;;;;15.75;3.40;;;13.30;38.40;;;;;;4973832;28;20399;-72
2022/01/03 11:36:22;;;;;;;19.33;3.55;;;13.40;38.00;;;;;;4973461;28;20478;-73
2022/01/03 11:38:48;;;;;;;17.40;4.30;;;13.60;37.60;;;;;;4971509;28;20396;-73
2022/01/03 11:41:14;;;;;;;22.50;4.67;;;13.70;36.50;;;;;;4972857;28;20392;-72
2022/01/03 11:43:42;;;;;;;16.58;4.05;;;13.70;37.20;;;;;;4972805;28;20507;-73
2022/01/03 11:46:09;;;;;;;22.13;4.10;;;13.70;37.10;;;;;;4972437;28;20820;-74
2022/01/03 11:48:35;;;;;;;14.18;3.63;;;13.60;36.70;;;;;;4972433;28;20396;-74
2022/01/03 11:51:05;;;;;;;13.57;3.20;;;13.50;37.60;;;;;;4972384;28;20376;-73
2022/01/03 11:53:33;;;;;;;16.80;3.50;;;13.50;37.90;;;;;;4972782;28;20396;-73
2022/01/03 11:56:03;;;;;;;17.17;3.80;;;13.40;37.90;;;;;;4972672;28;20424;-74
2022/01/03 12:04:08;;;;;;;21.90;4.50;;;13.20;38.70;;;;;;4973276;28;20422;-74
2022/01/03 12:06:35;;;;;;;16.27;3.00;;;13.00;38.70;;;;;;4973317;28;20447;-75
2022/01/03 12:09:09;;;;;;;21.52;4.00;;;12.90;39.30;;;;;;4974052;28;20396;-74
2022/01/03 12:11:44;;;;;;;16.70;4.47;;;12.80;40.00;;;;;;4973562;28;20423;-73
2022/01/03 12:14:16;;;;;;;14.05;3.20;;;12.70;40.60;;;;;;4973604;28;20418;-73
2022/01/03 12:16:50;;;;;;;16.85;3.90;;;12.60;40.60;;;;;;4972907;28;20400;-74
2022/01/03 12:19:31;;;;;;;26.17;3.80;;;12.60;41.20;;;;;;4973056;28;20951;-73
2022/01/03 12:22:10;;;;;;;15.98;3.58;;;12.50;41.80;;;;;;4973039;28;20401;-73
2022/01/03 12:24:36;;;;;;;13.98;3.80;;;12.50;42.30;;;;;;4973647;28;20415;-73
2022/01/03 12:27:10;;;;;;;17.83;4.20;;;12.40;43.40;;;;;;4972451;28;20881;-73
2022/01/03 12:29:54;;;;;;;18.83;4.18;;;12.30;45.00;;;;;;4972253;28;20465;-73
2022/01/03 12:32:24;;;;;;;20.27;4.30;;;12.30;47.50;;;;;;4972807;28;20414;-71
2022/01/03 12:35:15;;;;;;;18.23;4.80;;;12.20;48.10;;;;;;4972600;28;20491;-74
2022/01/03 12:37:44;;;;;;;18.92;4.35;;;12.10;48.70;;;;;;4975426;28;20412;-72
2022/01/03 12:40:12;;;;;;;27.08;4.60;;;12.10;48.40;;;;;;4976585;28;20633;-72
2022/01/03 12:42:51;;;;;;;22.13;4.55;;;12.10;48.20;;;;;;4976678;28;20400;-73
2022/01/03 12:45:39;;;;;;;19.85;4.30;;;12.10;47.70;;;;;;4985498;28;20422;-72
2022/01/03 12:48:18;;;;;;;26.40;5.45;;;12.10;48.70;;;;;;4978396;28;20380;-72
2022/01/03 12:50:43;;;;;;;19.83;4.10;;;12.10;49.70;;;;;;4984541;28;20376;-73
2022/01/03 12:53:23;;;;;;;25.27;4.27;;;12.10;49.00;;;;;;4982682;28;20396;-73
2022/01/03 12:55:53;;;;;;;20.88;4.57;;;12.00;51.90;;;;;;4976121;28;20396;-73
2022/01/03 12:58:19;;;;;;;22.40;5.17;;;11.90;54.20;;;;;;4975951;28;20463;-73
2022/01/03 13:00:59;;;;;;;23.17;4.80;;;11.80;57.40;;;;;;4976199;28;20601;-73
2022/01/03 13:03:28;;;;;;;19.13;4.50;;;11.70;58.80;;;;;;4976175;28;20901;-74
2022/01/03 13:06:13;;;;;;;11.07;3.28;;;11.60;56.20;;;;;;4975852;28;20475;-73